Time;durP1;ratioP1;P1;durP2;ratioP2;P2;SDS_P1;SDS_P2;PMS_P1;PMS_P2;Temp;Humidity;BMP_temperature;BMP_pressure;BME280_temperature;BME280_humidity;BME280_pressure;Samples;Min_cycle;Max_cycle;Signal;HPM_P1;HPM_P2
2022/03/30 00:01:55;;;;;;;16.52;3.30;;;21.00;99.90;;;;;;4993871;28;20030;-67
2022/03/30 00:04:23;;;;;;;16.27;2.45;;;21.20;99.90;;;;;;4994107;28;20023;-68
2022/03/30 00:06:50;;;;;;;13.32;2.38;;;21.50;99.90;;;;;;4993474;28;20740;-68
2022/03/30 00:09:17;;;;;;;19.45;2.75;;;21.50;99.90;;;;;;4991116;28;20117;-68
2022/03/30 00:11:45;;;;;;;14.10;3.67;;;21.50;99.90;;;;;;4977201;28;20035;-68
2022/03/30 00:14:12;;;;;;;14.43;2.85;;;21.50;99.90;;;;;;4985899;28;20031;-67
2022/03/30 00:16:40;;;;;;;13.30;2.45;;;21.50;99.90;;;;;;4987082;28;20121;-68
2022/03/30 00:19:07;;;;;;;12.88;3.47;;;21.70;99.90;;;;;;4991045;28;20045;-68
2022/03/30 00:21:35;;;;;;;12.43;2.88;;;21.80;99.90;;;;;;4985637;28;20023;-68
2022/03/30 00:24:02;;;;;;;11.57;2.45;;;22.00;99.90;;;;;;4988070;28;20117;-67
2022/03/30 00:26:29;;;;;;;13.90;2.70;;;22.20;99.90;;;;;;4991280;28;20028;-67
2022/03/30 00:28:57;;;;;;;12.10;2.78;;;22.30;99.90;;;;;;4989260;28;20022;-69
2022/03/30 00:31:24;;;;;;;12.30;2.33;;;22.50;99.90;;;;;;5002077;28;20097;-68
2022/03/30 00:33:52;;;;;;;11.55;3.05;;;22.40;99.90;;;;;;4987966;28;20026;-67
2022/03/30 00:36:19;;;;;;;16.00;3.42;;;22.20;99.90;;;;;;4992641;28;20031;-67
2022/03/30 00:38:47;;;;;;;10.35;2.03;;;21.90;99.90;;;;;;4984036;28;20064;-67
2022/03/30 00:41:14;;;;;;;10.05;2.00;;;21.80;99.90;;;;;;4990405;28;20029;-66
2022/03/30 00:43:41;;;;;;;15.75;3.03;;;21.70;99.90;;;;;;4984965;28;20018;-66
2022/03/30 00:46:12;;;;;;;17.02;2.92;;;21.70;99.90;;;;;;4990474;28;20027;-67
2022/03/30 00:48:43;;;;;;;15.07;3.40;;;21.70;99.90;;;;;;4986704;28;20027;-67
2022/03/30 00:51:10;;;;;;;13.43;2.65;;;21.60;99.90;;;;;;4987609;28;20521;-66
2022/03/30 00:53:38;;;;;;;11.27;2.65;;;21.50;99.90;;;;;;4987310;28;20018;-69
2022/03/30 00:56:07;;;;;;;15.73;2.92;;;21.90;99.90;;;;;;4989501;28;20046;-69
2022/03/30 00:58:36;;;;;;;15.90;3.00;;;22.40;99.90;;;;;;4983692;28;20502;-68
2022/03/30 01:01:03;;;;;;;17.17;3.92;;;22.40;99.90;;;;;;4996652;28;20038;-69
2022/03/30 01:03:30;;;;;;;12.63;2.97;;;22.60;99.90;;;;;;4981079;28;20022;-68
2022/03/30 01:05:57;;;;;;;11.75;2.60;;;22.50;99.90;;;;;;4990294;28;20038;-69
2022/03/30 01:08:25;;;;;;;10.82;2.70;;;22.30;99.90;;;;;;4984990;28;20078;-68
2022/03/30 01:10:53;;;;;;;11.23;3.50;;;22.20;99.90;;;;;;4981750;28;20026;-68
2022/03/30 01:13:21;;;;;;;9.68;2.58;;;22.20;99.90;;;;;;4986284;28;20030;-67
2022/03/30 01:15:48;;;;;;;11.43;2.75;;;22.40;99.90;;;;;;4985100;28;20029;-67
2022/03/30 01:18:16;;;;;;;8.98;2.42;;;22.50;99.90;;;;;;4984361;28;20026;-68
2022/03/30 01:20:51;;;;;;;8.95;2.67;;;22.90;99.90;;;;;;4990619;28;20390;-68
2022/03/30 01:23:19;;;;;;;6.95;2.00;;;23.10;99.90;;;;;;4980969;28;20084;-67
2022/03/30 01:25:46;;;;;;;9.02;2.03;;;23.40;99.90;;;;;;4989978;28;20030;-68
2022/03/30 01:28:13;;;;;;;8.65;2.00;;;23.40;99.90;;;;;;4984191;28;20204;-68
2022/03/30 01:33:26;;;;;;;5.78;1.75;;;23.60;99.90;;;;;;4981840;28;20043;-67
2022/03/30 01:35:54;;;;;;;5.57;2.05;;;22.80;99.90;;;;;;4987240;28;20390;-67
2022/03/30 01:38:21;;;;;;;13.63;2.63;;;22.30;99.90;;;;;;4982831;28;20022;-67
2022/03/30 01:40:49;;;;;;;6.28;2.53;;;21.80;99.90;;;;;;4983749;28;20027;-67
2022/03/30 01:43:16;;;;;;;10.45;3.42;;;21.50;99.90;;;;;;4987883;28;20046;-67
2022/03/30 01:45:43;;;;;;;9.27;3.58;;;21.40;99.90;;;;;;4983496;28;20103;-68
2022/03/30 01:48:11;;;;;;;10.80;3.75;;;21.20;99.90;;;;;;4983668;28;20092;-67
2022/03/30 01:50:38;;;;;;;10.00;3.08;;;21.20;99.90;;;;;;4993183;28;20402;-67
2022/03/30 01:53:05;;;;;;;8.80;2.97;;;21.10;99.90;;;;;;4989181;28;20300;-67
2022/03/30 01:55:36;;;;;;;7.38;3.00;;;21.10;99.90;;;;;;4989833;28;20026;-68
2022/03/30 01:58:05;;;;;;;7.82;2.90;;;21.10;99.90;;;;;;4984935;28;20019;-67
2022/03/30 02:00:32;;;;;;;6.82;3.25;;;20.90;99.90;;;;;;4988063;28;20057;-68
2022/03/30 02:02:59;;;;;;;11.20;3.90;;;21.00;99.90;;;;;;5003802;28;20026;-67
2022/03/30 02:05:28;;;;;;;11.27;3.40;;;21.00;99.90;;;;;;4989656;28;20041;-67
2022/03/30 02:07:56;;;;;;;10.63;3.05;;;21.10;99.90;;;;;;4985634;28;20471;-67
2022/03/30 02:10:23;;;;;;;8.57;3.72;;;21.10;99.90;;;;;;4987516;28;20574;-68
2022/03/30 02:12:50;;;;;;;7.57;3.17;;;21.30;99.90;;;;;;4997586;28;20023;-68
2022/03/30 02:15:18;;;;;;;7.40;2.30;;;21.50;99.90;;;;;;4984109;28;20042;-67
2022/03/30 02:17:45;;;;;;;8.52;2.78;;;21.90;99.90;;;;;;4986739;28;20022;-67
2022/03/30 02:20:12;;;;;;;8.30;2.38;;;22.00;99.90;;;;;;5005412;28;20395;-67
2022/03/30 02:22:40;;;;;;;5.40;2.20;;;22.30;99.90;;;;;;5005559;28;20027;-67
2022/03/30 02:25:08;;;;;;;7.55;2.00;;;22.30;99.90;;;;;;4989535;28;20034;-67
2022/03/30 02:27:37;;;;;;;7.05;2.20;;;22.40;99.90;;;;;;4988556;28;20030;-67
2022/03/30 02:30:05;;;;;;;8.50;2.55;;;22.70;99.90;;;;;;4988786;28;20150;-67
2022/03/30 02:32:32;;;;;;;8.60;2.50;;;23.10;99.90;;;;;;4989895;28;20109;-68
2022/03/30 02:35:00;;;;;;;10.55;2.17;;;23.10;99.90;;;;;;4985726;28;20109;-67
2022/03/30 02:37:27;;;;;;;5.60;1.70;;;22.80;99.90;;;;;;4990353;28;20050;-68
2022/03/30 02:39:54;;;;;;;14.23;2.95;;;22.80;99.90;;;;;;4989303;28;20073;-68
2022/03/30 02:42:21;;;;;;;8.27;3.40;;;23.00;99.90;;;;;;4988445;28;20031;-68
2022/03/30 02:44:49;;;;;;;11.63;5.45;;;23.00;99.90;;;;;;4988445;28;20109;-68
2022/03/30 02:48:17;;;;;;;10.35;4.68;;;22.50;99.90;;;;;;4990909;28;20035;-67
2022/03/30 02:50:04;;;;;;;9.23;3.75;;;22.20;99.90;;;;;;4990723;28;20414;-68
2022/03/30 02:52:31;;;;;;;12.98;5.45;;;22.00;99.90;;;;;;4985323;28;20030;-68
2022/03/30 02:54:58;;;;;;;11.90;3.60;;;22.00;99.90;;;;;;4991102;28;20083;-68
2022/03/30 02:57:25;;;;;;;10.45;2.70;;;21.90;99.90;;;;;;4987265;28;20034;-68
2022/03/30 02:59:53;;;;;;;9.80;3.97;;;21.90;99.90;;;;;;4993366;28;20030;-67
2022/03/30 03:02:20;;;;;;;7.32;3.42;;;22.00;99.90;;;;;;4993238;28;20479;-68
2022/03/30 03:04:48;;;;;;;7.18;2.28;;;22.10;99.90;;;;;;4994129;28;20061;-68
2022/03/30 03:07:16;;;;;;;10.43;3.08;;;22.20;99.90;;;;;;4995981;28;20069;-68
2022/03/30 03:09:43;;;;;;;7.38;2.25;;;22.30;99.90;;;;;;4993368;28;20041;-67
2022/03/30 03:12:10;;;;;;;8.77;2.85;;;22.40;99.90;;;;;;4993472;28;20029;-67
2022/03/30 03:14:38;;;;;;;9.25;2.95;;;22.30;99.90;;;;;;5003048;28;20554;-67
2022/03/30 03:17:06;;;;;;;4.63;1.67;;;22.30;99.90;;;;;;4987115;28;20057;-67
2022/03/30 03:19:34;;;;;;;8.77;2.85;;;22.20;99.90;;;;;;4991295;28;20030;-68
2022/03/30 03:22:01;;;;;;;6.47;2.20;;;22.30;99.90;;;;;;5010135;28;20027;-67
2022/03/30 03:24:28;;;;;;;7.53;2.17;;;22.20;99.90;;;;;;4996532;28;20355;-67
2022/03/30 03:26:56;;;;;;;9.65;3.03;;;22.20;99.90;;;;;;4981348;28;20096;-67
2022/03/30 03:29:23;;;;;;;8.40;2.47;;;22.60;99.90;;;;;;4994273;28;20089;-67
2022/03/30 03:31:50;;;;;;;9.15;2.20;;;22.80;99.90;;;;;;4990295;28;20475;-67
2022/03/30 03:34:17;;;;;;;5.07;1.90;;;22.70;99.90;;;;;;4993078;28;20033;-67
2022/03/30 03:36:45;;;;;;;7.97;1.73;;;22.90;99.90;;;;;;4994435;28;20026;-67
2022/03/30 03:39:12;;;;;;;5.97;1.92;;;23.00;99.90;;;;;;4983952;28;20041;-67
2022/03/30 03:41:39;;;;;;;8.73;1.88;;;23.00;99.90;;;;;;4985807;28;20022;-65
2022/03/30 03:44:07;;;;;;;6.15;1.17;;;23.00;99.90;;;;;;4981999;28;20038;-67
2022/03/30 03:46:34;;;;;;;4.55;1.63;;;23.30;99.90;;;;;;4988525;28;20023;-67
2022/03/30 03:49:01;;;;;;;5.80;1.85;;;23.40;99.90;;;;;;4986261;28;20029;-67
2022/03/30 03:51:28;;;;;;;6.97;1.67;;;23.60;99.90;;;;;;4989024;28;20041;-67
2022/03/30 03:53:56;;;;;;;8.23;1.88;;;23.60;99.90;;;;;;4986771;28;20053;-67
2022/03/30 03:56:30;;;;;;;4.43;1.55;;;23.70;99.90;;;;;;4993004;28;20026;-66
2022/03/30 03:58:56;;;;;;;;;;;23.60;99.90;;;;;;4985255;28;20595;-66
2022/03/30 04:01:24;;;;;;;3.60;1.58;;;23.30;99.90;;;;;;4986326;28;19964;-67
2022/03/30 04:03:51;;;;;;;3.15;1.75;;;23.10;99.90;;;;;;4993265;28;20037;-67
2022/03/30 04:06:18;;;;;;;7.70;1.55;;;23.10;99.90;;;;;;4986898;28;20416;-67
2022/03/30 04:08:46;;;;;;;5.32;1.83;;;23.10;99.90;;;;;;4991936;28;20028;-66
2022/03/30 04:11:13;;;;;;;10.52;2.55;;;23.10;99.90;;;;;;4987507;28;20411;-68
2022/03/30 04:13:41;;;;;;;5.90;1.80;;;23.10;99.90;;;;;;4988611;28;20491;-67
2022/03/30 04:16:09;;;;;;;4.50;2.10;;;23.00;99.90;;;;;;4984452;28;20118;-67
2022/03/30 04:18:36;;;;;;;4.88;2.42;;;22.90;99.90;;;;;;4987594;28;20047;-67
2022/03/30 04:21:03;;;;;;;7.25;2.00;;;22.90;99.90;;;;;;4988327;28;20085;-67
2022/03/30 04:23:30;;;;;;;6.70;2.42;;;22.80;99.90;;;;;;4986981;28;20018;-66
2022/03/30 04:25:58;;;;;;;5.25;2.28;;;22.70;99.90;;;;;;4985920;28;20118;-66
2022/03/30 04:28:25;;;;;;;7.90;2.60;;;22.80;99.90;;;;;;4989116;28;20487;-67
2022/03/30 04:30:52;;;;;;;5.10;2.50;;;22.70;99.90;;;;;;4985493;28;20042;-67
2022/03/30 04:33:19;;;;;;;5.05;1.73;;;22.70;99.90;;;;;;4982545;28;20026;-66
2022/03/30 04:35:47;;;;;;;2.30;1.55;;;22.60;99.90;;;;;;4985690;28;20023;-67
2022/03/30 04:38:14;;;;;;;4.07;1.75;;;22.70;99.90;;;;;;4989252;28;20058;-67
2022/03/30 04:40:42;;;;;;;5.28;1.25;;;22.60;99.90;;;;;;4987038;28;20026;-67
2022/03/30 04:43:09;;;;;;;8.82;1.92;;;22.50;99.90;;;;;;4985643;28;20026;-66
2022/03/30 04:45:37;;;;;;;6.53;1.60;;;22.50;99.90;;;;;;4987490;28;20518;-67
2022/03/30 04:48:04;;;;;;;4.50;1.13;;;22.60;99.90;;;;;;4987895;28;20467;-67
2022/03/30 04:50:31;;;;;;;6.90;2.08;;;22.60;99.90;;;;;;5004879;28;20043;-67
2022/03/30 04:52:59;;;;;;;3.75;1.33;;;22.60;99.90;;;;;;4988527;28;20053;-66
2022/03/30 04:55:26;;;;;;;5.22;1.42;;;22.50;99.90;;;;;;4986782;28;20030;-66
2022/03/30 04:57:54;;;;;;;5.65;1.55;;;22.50;99.90;;;;;;4984486;28;20030;-67
2022/03/30 05:00:21;;;;;;;4.70;1.27;;;22.50;99.90;;;;;;4985108;28;20029;-67
2022/03/30 05:02:48;;;;;;;4.43;1.58;;;22.50;99.90;;;;;;4989566;28;20482;-66
2022/03/30 05:05:16;;;;;;;5.57;1.30;;;22.30;99.90;;;;;;4982166;28;20232;-66
2022/03/30 05:07:43;;;;;;;10.43;1.80;;;22.20;99.90;;;;;;4988504;28;20022;-66
2022/03/30 05:10:13;;;;;;;9.07;1.80;;;22.30;99.90;;;;;;4987763;28;20029;-67
2022/03/30 05:12:41;;;;;;;7.25;1.60;;;22.30;99.90;;;;;;4987176;28;20026;-66
2022/03/30 05:15:09;;;;;;;6.97;1.60;;;22.40;99.90;;;;;;4986940;28;20033;-66
2022/03/30 05:17:43;;;;;;;9.63;2.08;;;22.40;99.90;;;;;;4987190;28;20544;-67
2022/03/30 05:20:11;;;;;;;;;;;22.40;99.90;;;;;;4989198;28;20045;-67
2022/03/30 05:22:38;;;;;;;3.45;1.42;;;22.30;99.90;;;;;;4987843;28;19921;-67
2022/03/30 05:25:06;;;;;;;9.10;1.90;;;22.30;99.90;;;;;;4985672;28;20026;-68
2022/03/30 05:27:34;;;;;;;8.20;1.58;;;22.40;99.90;;;;;;4987896;28;20089;-67
2022/03/30 05:30:02;;;;;;;5.60;1.95;;;22.40;99.90;;;;;;4990093;28;20029;-66
2022/03/30 05:32:30;;;;;;;12.07;2.60;;;22.30;99.90;;;;;;4988049;28;20479;-67
2022/03/30 05:34:57;;;;;;;12.85;3.28;;;22.20;99.90;;;;;;4988310;28;21020;-67
2022/03/30 05:37:25;;;;;;;6.72;2.80;;;22.20;99.90;;;;;;4998928;28;20145;-67
2022/03/30 05:39:52;;;;;;;10.65;1.90;;;22.10;99.90;;;;;;4986183;28;20029;-66
2022/03/30 05:42:21;;;;;;;12.48;2.80;;;22.10;99.90;;;;;;4986106;28;20102;-66
2022/03/30 05:44:49;;;;;;;7.13;2.33;;;22.10;99.90;;;;;;4984822;28;20050;-67
2022/03/30 05:47:16;;;;;;;8.05;2.78;;;22.10;99.90;;;;;;4988031;28;20038;-66
2022/03/30 05:49:44;;;;;;;11.00;2.70;;;22.00;99.90;;;;;;4984784;28;20823;-66
2022/03/30 05:52:11;;;;;;;6.47;1.83;;;21.90;99.90;;;;;;5004337;28;20129;-66
2022/03/30 05:54:38;;;;;;;6.07;1.88;;;21.70;99.90;;;;;;4988194;28;20029;-66
2022/03/30 05:57:07;;;;;;;4.28;1.80;;;21.70;99.90;;;;;;4993843;28;20026;-66
2022/03/30 05:59:35;;;;;;;6.30;1.80;;;21.70;99.90;;;;;;4993145;28;20061;-66
2022/03/30 06:02:04;;;;;;;4.65;1.27;;;21.70;99.90;;;;;;4990587;28;20029;-67
2022/03/30 06:04:31;;;;;;;4.00;1.42;;;21.60;99.90;;;;;;4993536;28;20026;-67
2022/03/30 06:06:59;;;;;;;5.97;1.20;;;21.60;99.90;;;;;;4979760;28;20487;-67
2022/03/30 06:09:33;;;;;;;6.55;2.05;;;21.60;99.90;;;;;;4995977;28;20069;-66
2022/03/30 06:12:04;;;;;;;5.55;1.30;;;21.60;99.90;;;;;;4988944;28;20023;-66
2022/03/30 06:14:32;;;;;;;4.40;1.55;;;21.50;99.90;;;;;;4992262;28;20058;-67
2022/03/30 06:17:00;;;;;;;4.53;1.58;;;21.50;99.90;;;;;;4994594;28;20021;-66
2022/03/30 06:19:27;;;;;;;6.75;1.80;;;21.50;99.90;;;;;;4991278;28;20033;-68
2022/03/30 06:21:55;;;;;;;5.65;1.70;;;21.60;99.90;;;;;;4989381;28;20053;-67
2022/03/30 06:24:22;;;;;;;5.88;1.45;;;21.60;99.90;;;;;;4993163;28;20033;-67
2022/03/30 06:26:49;;;;;;;6.18;1.55;;;21.50;99.90;;;;;;5008190;28;20050;-67
2022/03/30 06:29:17;;;;;;;4.55;1.33;;;21.50;99.90;;;;;;4991211;28;20487;-67
2022/03/30 06:31:44;;;;;;;4.55;1.45;;;21.60;99.90;;;;;;4992240;28;20061;-67
2022/03/30 06:34:11;;;;;;;3.33;1.00;;;21.60;99.90;;;;;;4993650;28;20097;-67
2022/03/30 06:36:38;;;;;;;4.35;1.33;;;21.60;99.90;;;;;;4988705;28;20030;-67
2022/03/30 06:39:06;;;;;;;5.50;1.40;;;21.50;99.90;;;;;;4992261;28;20077;-66
2022/03/30 06:41:34;;;;;;;4.57;1.33;;;21.60;99.90;;;;;;4992475;28;20112;-67
2022/03/30 06:44:01;;;;;;;4.55;1.10;;;21.60;99.90;;;;;;4990595;28;20043;-67
2022/03/30 06:46:29;;;;;;;5.05;1.30;;;21.60;99.90;;;;;;4991888;28;20474;-66
2022/03/30 06:48:56;;;;;;;3.47;1.25;;;21.60;99.90;;;;;;4989982;28;20468;-67
2022/03/30 06:51:24;;;;;;;5.70;0.90;;;21.50;99.90;;;;;;4990763;28;20026;-66
2022/03/30 06:53:51;;;;;;;2.67;1.08;;;21.40;99.90;;;;;;4990877;28;20021;-66
2022/03/30 06:56:18;;;;;;;3.92;1.33;;;21.30;99.90;;;;;;4990188;28;20030;-67
2022/03/30 06:58:46;;;;;;;2.30;1.17;;;21.20;99.90;;;;;;4991415;28;20411;-66
2022/03/30 07:01:15;;;;;;;3.35;1.27;;;21.20;99.90;;;;;;4992760;28;20042;-66
2022/03/30 07:03:42;;;;;;;2.83;0.75;;;21.10;99.90;;;;;;4989384;28;20022;-66
2022/03/30 07:06:10;;;;;;;2.70;1.08;;;21.00;99.90;;;;;;4993349;28;20049;-67
2022/03/30 07:11:22;;;;;;;4.10;1.55;;;21.00;99.90;;;;;;4990800;28;20033;-67
2022/03/30 07:13:51;;;;;;;1.98;0.93;;;20.90;99.90;;;;;;4988404;28;20022;-67
2022/03/30 07:16:19;;;;;;;4.55;1.30;;;20.80;99.90;;;;;;4983599;28;20039;-66
2022/03/30 07:18:46;;;;;;;1.67;1.13;;;20.80;99.90;;;;;;5006220;28;20030;-66
2022/03/30 07:21:14;;;;;;;5.57;1.40;;;20.80;99.90;;;;;;4991699;28;20025;-67
2022/03/30 07:23:41;;;;;;;10.02;2.40;;;20.80;99.90;;;;;;4991562;28;20137;-67
2022/03/30 07:26:08;;;;;;;4.60;1.48;;;20.80;99.90;;;;;;4989342;28;20109;-66
2022/03/30 07:28:37;;;;;;;5.35;2.13;;;20.80;99.90;;;;;;4989258;28;20036;-66
2022/03/30 07:31:04;;;;;;;2.90;1.88;;;20.70;99.90;;;;;;4989086;28;20541;-67
2022/03/30 07:33:33;;;;;;;4.95;2.10;;;20.70;99.90;;;;;;4990596;28;20015;-66
2022/03/30 07:36:01;;;;;;;3.80;2.03;;;20.60;99.90;;;;;;4993465;28;20463;-67
2022/03/30 07:38:29;;;;;;;4.22;2.10;;;20.60;99.90;;;;;;4991352;28;20033;-67
2022/03/30 07:41:00;;;;;;;5.20;2.22;;;20.50;99.90;;;;;;4986455;28;20019;-67
2022/03/30 07:43:28;;;;;;;5.10;2.72;;;20.50;99.90;;;;;;4986090;28;20104;-66
2022/03/30 07:45:56;;;;;;;5.57;2.55;;;20.40;99.90;;;;;;4988984;28;20038;-66
2022/03/30 07:48:24;;;;;;;6.55;2.65;;;20.40;99.90;;;;;;4991174;28;20034;-66
2022/03/30 07:50:52;;;;;;;6.00;2.22;;;20.40;99.90;;;;;;5007067;28;20069;-66
2022/03/30 07:53:19;;;;;;;5.80;2.97;;;20.40;99.90;;;;;;4990419;28;20470;-65
2022/03/30 07:55:47;;;;;;;5.53;2.47;;;20.40;99.90;;;;;;4984276;28;20080;-66
2022/03/30 07:58:15;;;;;;;4.65;2.20;;;20.40;99.90;;;;;;4986854;28;20077;-66
2022/03/30 08:00:43;;;;;;;4.72;2.15;;;20.40;99.90;;;;;;4989480;28;20037;-66
2022/03/30 08:03:14;;;;;;;5.93;3.17;;;20.40;99.90;;;;;;4992375;28;20467;-66
2022/03/30 08:05:41;;;;;;;6.28;2.67;;;20.40;99.90;;;;;;4987998;28;20023;-66
2022/03/30 08:08:09;;;;;;;6.47;2.70;;;20.40;99.90;;;;;;4993542;28;20073;-66
2022/03/30 08:10:37;;;;;;;7.55;3.83;;;20.20;99.90;;;;;;4989883;28;20064;-67
2022/03/30 08:13:05;;;;;;;6.10;3.58;;;20.10;99.90;;;;;;4979232;28;20034;-67
2022/03/30 08:15:35;;;;;;;5.93;3.35;;;20.00;99.90;;;;;;4991945;28;20041;-66
2022/03/30 08:18:05;;;;;;;7.57;3.13;;;20.00;99.90;;;;;;4994108;28;20026;-66
2022/03/30 08:23:18;;;;;;;8.57;3.45;;;20.00;99.90;;;;;;4991631;28;20044;-66
2022/03/30 08:25:46;;;;;;;9.77;6.05;;;20.00;99.90;;;;;;4996092;28;20030;-67
2022/03/30 08:28:13;;;;;;;5.65;3.35;;;19.90;99.90;;;;;;4990820;28;20026;-66
2022/03/30 08:30:41;;;;;;;8.20;3.10;;;19.80;99.90;;;;;;4990594;28;20097;-67
2022/03/30 08:33:08;;;;;;;7.03;2.47;;;19.90;99.90;;;;;;4982524;28;20026;-66
2022/03/30 08:35:35;;;;;;;5.53;2.03;;;19.80;99.90;;;;;;4992263;28;20031;-67
2022/03/30 08:38:03;;;;;;;9.30;2.17;;;19.90;99.90;;;;;;4993482;28;20033;-67
2022/03/30 08:40:30;;;;;;;5.28;1.70;;;19.90;99.90;;;;;;4991294;28;20089;-67
2022/03/30 08:42:58;;;;;;;4.47;1.80;;;19.90;99.90;;;;;;4990553;28;20492;-66
2022/03/30 08:45:25;;;;;;;3.80;1.60;;;19.90;99.90;;;;;;4990288;28;20055;-67
2022/03/30 08:47:53;;;;;;;9.07;1.98;;;19.90;99.90;;;;;;4993257;28;20057;-67
2022/03/30 08:50:21;;;;;;;5.90;1.63;;;19.90;99.90;;;;;;4990255;28;20093;-66
2022/03/30 08:52:51;;;;;;;8.48;1.55;;;19.90;99.90;;;;;;4985997;28;20054;-67
2022/03/30 08:55:19;;;;;;;7.10;1.85;;;19.90;99.90;;;;;;4982865;28;20034;-67
2022/03/30 08:57:46;;;;;;;7.97;2.22;;;19.90;99.90;;;;;;4986591;28;20026;-66
2022/03/30 09:00:19;;;;;;;5.85;1.60;;;19.90;99.90;;;;;;4992983;28;20089;-67
2022/03/30 09:02:55;;;;;;;6.63;1.95;;;19.90;99.90;;;;;;4979714;28;20030;-66
2022/03/30 09:05:25;;;;;;;7.75;2.58;;;19.90;99.90;;;;;;4985137;28;20081;-66
2022/03/30 09:07:55;;;;;;;6.50;1.90;;;19.90;99.90;;;;;;4991847;28;20045;-67
2022/03/30 09:10:30;;;;;;;5.35;1.90;;;19.80;99.90;;;;;;4992119;28;20445;-66
2022/03/30 09:12:57;;;;;;;5.10;1.55;;;19.80;99.90;;;;;;4981817;28;20030;-66
2022/03/30 09:15:25;;;;;;;8.85;1.52;;;19.80;99.90;;;;;;4991752;28;20069;-67
2022/03/30 09:18:01;;;;;;;3.58;1.73;;;19.70;99.90;;;;;;4992842;28;20018;-66
2022/03/30 09:20:28;;;;;;;4.15;1.33;;;19.70;99.90;;;;;;4991680;28;20023;-66
2022/03/30 09:22:58;;;;;;;6.07;1.35;;;19.70;99.90;;;;;;4991864;28;20026;-66
2022/03/30 09:25:31;;;;;;;4.45;1.35;;;19.70;99.90;;;;;;4999042;28;20557;-67
2022/03/30 09:28:00;;;;;;;3.55;1.27;;;19.70;99.90;;;;;;4982348;28;20410;-65
2022/03/30 09:30:28;;;;;;;4.82;1.58;;;19.70;99.90;;;;;;4990114;28;20023;-66
2022/03/30 09:32:58;;;;;;;4.38;1.15;;;19.70;99.90;;;;;;4992645;28;20037;-67
2022/03/30 09:35:37;;;;;;;3.80;1.20;;;19.70;99.90;;;;;;4991005;28;20027;-67
2022/03/30 09:38:08;;;;;;;5.88;1.83;;;19.70;99.90;;;;;;4989021;28;20022;-66
2022/03/30 09:40:38;;;;;;;5.22;1.40;;;19.70;99.90;;;;;;4991000;28;20045;-66
2022/03/30 09:43:19;;;;;;;6.07;1.45;;;19.70;99.90;;;;;;4992570;28;20019;-66
2022/03/30 09:45:48;;;;;;;4.50;1.25;;;19.80;99.90;;;;;;4994028;28;20046;-66
2022/03/30 09:48:20;;;;;;;5.88;1.30;;;19.80;99.90;;;;;;4995650;28;20028;-66
2022/03/30 09:50:53;;;;;;;7.20;1.83;;;19.80;99.90;;;;;;4988381;28;20057;-66
2022/03/30 09:53:24;;;;;;;9.73;1.55;;;19.80;99.90;;;;;;4982724;28;20029;-66
2022/03/30 09:56:02;;;;;;;6.40;1.40;;;19.80;99.90;;;;;;4988284;28;20026;-67
2022/03/30 09:58:32;;;;;;;7.97;1.48;;;19.80;99.90;;;;;;4991097;28;20407;-66
2022/03/30 10:01:29;;;;;;;5.20;1.52;;;19.70;99.90;;;;;;4983792;28;20029;-66
2022/03/30 10:04:01;;;;;;;8.25;2.28;;;19.80;99.90;;;;;;4990466;28;20023;-66
2022/03/30 10:06:34;;;;;;;6.82;2.03;;;19.70;99.90;;;;;;4992005;28;20106;-66
2022/03/30 10:09:02;;;;;;;13.48;2.72;;;19.70;99.90;;;;;;4987300;28;20494;-66
2022/03/30 10:11:30;;;;;;;10.00;2.28;;;19.70;99.90;;;;;;4985176;28;20113;-67
2022/03/30 10:14:00;;;;;;;10.27;2.58;;;19.80;99.90;;;;;;4994458;28;20030;-66
2022/03/30 10:16:28;;;;;;;12.10;3.40;;;19.80;99.90;;;;;;5000511;28;20555;-67
2022/03/30 10:18:56;;;;;;;16.50;3.35;;;19.90;99.90;;;;;;4984012;28;20046;-66
2022/03/30 10:21:46;;;;;;;12.00;2.90;;;19.90;99.90;;;;;;4986576;28;20042;-67
2022/03/30 10:24:36;;;;;;;12.90;2.88;;;19.90;99.90;;;;;;4988247;28;20509;-67
2022/03/30 10:27:40;;;;;;;11.45;3.08;;;20.00;99.90;;;;;;4988915;28;20521;-67
2022/03/30 10:30:11;;;;;;;17.17;3.15;;;20.00;99.90;;;;;;4976889;28;20051;-67
2022/03/30 10:32:40;;;;;;;10.85;4.22;;;19.90;99.90;;;;;;4989059;28;20034;-68
2022/03/30 10:35:13;;;;;;;18.15;2.83;;;19.90;99.90;;;;;;4990221;28;20018;-67
2022/03/30 10:37:43;;;;;;;15.00;3.20;;;20.00;99.90;;;;;;4989151;28;20027;-68
2022/03/30 10:40:23;;;;;;;15.75;3.38;;;19.90;99.90;;;;;;4988005;28;20129;-68
2022/03/30 10:42:50;;;;;;;14.73;3.50;;;19.90;99.90;;;;;;4995706;28;20394;-68
2022/03/30 10:45:33;;;;;;;13.27;3.42;;;19.80;99.90;;;;;;5003878;28;20486;-68
2022/03/30 10:48:10;;;;;;;13.75;3.67;;;19.70;99.90;;;;;;4985403;28;20558;-68
2022/03/30 10:50:41;;;;;;;20.83;4.68;;;19.70;99.90;;;;;;4994483;28;20034;-68
2022/03/30 10:53:33;;;;;;;14.82;4.30;;;19.70;99.90;;;;;;4985221;28;20038;-69
2022/03/30 10:56:09;;;;;;;14.15;4.55;;;19.70;99.90;;;;;;4992362;28;20033;-68
2022/03/30 10:58:38;;;;;;;11.32;4.88;;;19.70;99.90;;;;;;4984105;28;20109;-68
2022/03/30 11:01:27;;;;;;;20.92;6.93;;;19.70;99.90;;;;;;4989205;28;20018;-68
2022/03/30 11:04:03;;;;;;;16.92;6.43;;;19.70;99.90;;;;;;4989110;28;20085;-68
2022/03/30 11:06:33;;;;;;;17.95;6.00;;;19.60;99.90;;;;;;4993025;28;20023;-66
2022/03/30 11:09:02;;;;;;;16.35;6.82;;;19.60;99.90;;;;;;4993397;28;20579;-65
2022/03/30 11:11:49;;;;;;;18.02;6.05;;;19.60;99.90;;;;;;5007690;28;20046;-65
2022/03/30 11:14:28;;;;;;;10.15;5.13;;;19.60;99.90;;;;;;4993915;28;20030;-65
2022/03/30 11:17:09;;;;;;;13.27;5.53;;;19.60;99.90;;;;;;4992163;28;20033;-66
2022/03/30 11:19:54;;;;;;;12.55;5.95;;;19.60;99.90;;;;;;4981096;28;20050;-66
2022/03/30 11:22:32;;;;;;;14.05;5.65;;;19.60;99.90;;;;;;4988222;28;20029;-66
2022/03/30 11:25:17;;;;;;;13.13;5.10;;;19.60;99.90;;;;;;4989726;28;20031;-67
2022/03/30 11:28:01;;;;;;;12.35;4.53;;;19.60;99.90;;;;;;4985237;28;20490;-66
2022/03/30 11:30:31;;;;;;;19.90;5.10;;;19.50;99.90;;;;;;4993617;28;20023;-66
2022/03/30 11:33:06;;;;;;;11.93;4.22;;;19.60;99.90;;;;;;4988725;28;20034;-67
2022/03/30 11:35:37;;;;;;;10.88;4.35;;;19.50;99.90;;;;;;4988149;28;20463;-67
2022/03/30 11:38:21;;;;;;;14.13;4.85;;;19.60;99.90;;;;;;4997294;28;20027;-67
2022/03/30 11:40:50;;;;;;;19.65;4.85;;;19.70;99.90;;;;;;4991183;28;20054;-67
2022/03/30 11:43:19;;;;;;;12.93;5.22;;;19.70;99.90;;;;;;4987676;28;20510;-67
2022/03/30 11:45:47;;;;;;;14.77;5.53;;;19.70;99.90;;;;;;4992778;28;20056;-68
2022/03/30 11:48:15;;;;;;;7.90;4.40;;;19.70;99.90;;;;;;5005922;28;20042;-67
2022/03/30 11:50:48;;;;;;;14.50;5.07;;;19.60;99.90;;;;;;4992836;28;20030;-66
2022/03/30 11:53:32;;;;;;;20.52;5.38;;;19.60;99.90;;;;;;4986808;28;20042;-67
2022/03/30 11:56:09;;;;;;;11.13;5.13;;;19.60;99.90;;;;;;4990608;28;20451;-66
2022/03/30 11:58:43;;;;;;;11.25;4.85;;;19.50;99.90;;;;;;4985510;28;20117;-67
2022/03/30 12:01:13;;;;;;;14.15;4.30;;;19.50;99.90;;;;;;4987345;28;20035;-67
2022/03/30 12:03:42;;;;;;;7.00;3.90;;;19.40;99.90;;;;;;4995590;28;20072;-67
2022/03/30 12:06:11;;;;;;;11.23;3.45;;;19.40;99.90;;;;;;4991219;28;20030;-67
2022/03/30 12:08:48;;;;;;;11.20;4.47;;;19.40;99.90;;;;;;4983891;28;20459;-67
2022/03/30 12:11:20;;;;;;;14.00;3.78;;;19.40;99.90;;;;;;4991062;28;20066;-67
2022/03/30 12:13:52;;;;;;;11.27;3.70;;;19.40;99.90;;;;;;4987738;28;20050;-67
2022/03/30 12:16:21;;;;;;;12.35;3.60;;;19.40;99.90;;;;;;4986729;28;20015;-67
2022/03/30 12:18:54;;;;;;;12.20;3.72;;;19.40;99.90;;;;;;4985918;28;20068;-67
2022/03/30 12:21:24;;;;;;;8.80;3.13;;;19.40;99.90;;;;;;4988360;28;20033;-68
2022/03/30 12:23:52;;;;;;;10.90;3.35;;;19.40;99.90;;;;;;4994248;28;20053;-67
2022/03/30 12:26:19;;;;;;;7.80;3.03;;;19.40;99.90;;;;;;4993181;28;20022;-67
2022/03/30 12:28:46;;;;;;;6.68;2.88;;;19.30;99.90;;;;;;4989299;28;20022;-67
2022/03/30 12:31:14;;;;;;;7.47;2.60;;;19.20;99.90;;;;;;4988595;28;20030;-67
2022/03/30 12:33:52;;;;;;;6.38;2.38;;;19.20;99.90;;;;;;4990030;28;20034;-67
2022/03/30 12:36:21;;;;;;;8.25;2.33;;;19.10;99.90;;;;;;4985408;28;20431;-68
2022/03/30 12:38:52;;;;;;;6.72;2.25;;;19.00;99.90;;;;;;4980129;28;21087;-68
2022/03/30 12:41:27;;;;;;;7.88;2.50;;;19.00;99.90;;;;;;4988371;28;20026;-68
2022/03/30 12:43:59;;;;;;;7.43;1.77;;;18.90;99.90;;;;;;4996521;28;20093;-68
2022/03/30 12:46:36;;;;;;;10.60;3.28;;;19.00;99.90;;;;;;4986086;28;20065;-68
2022/03/30 12:49:08;;;;;;;9.35;2.58;;;18.90;99.90;;;;;;4992467;28;20034;-68
2022/03/30 12:51:36;;;;;;;10.25;2.60;;;19.00;99.90;;;;;;4986821;28;20094;-68
2022/03/30 12:54:05;;;;;;;12.13;2.90;;;18.90;99.90;;;;;;4985726;28;20089;-69
2022/03/30 12:56:32;;;;;;;20.35;3.40;;;19.00;99.90;;;;;;4990701;28;20487;-68
2022/03/30 12:59:04;;;;;;;15.25;3.17;;;19.10;99.90;;;;;;4989773;28;20053;-68
2022/03/30 13:01:34;;;;;;;11.98;3.50;;;19.10;99.90;;;;;;4989594;28;20026;-68
2022/03/30 13:04:03;;;;;;;15.40;2.63;;;19.00;99.90;;;;;;4985080;28;20109;-68